Time;durP1;ratioP1;P1;durP2;ratioP2;P2;SDS_P1;SDS_P2;PMS_P1;PMS_P2;Temp;Humidity;BMP_temperature;BMP_pressure;BME280_temperature;BME280_humidity;BME280_pressure;Samples;Min_cycle;Max_cycle;Signal;HPM_P1;HPM_P2
2023/08/30 00:00:13;;;;;;;2.70;2.50;;;13.50;99.90;;;;;;6251467;22;20153;-77
2023/08/30 00:02:38;;;;;;;3.05;2.75;;;13.40;99.90;;;;;;6251021;22;20156;-77
2023/08/30 00:05:04;;;;;;;5.32;2.53;;;13.30;99.90;;;;;;6251100;22;20161;-77
2023/08/30 00:07:30;;;;;;;5.32;2.70;;;13.30;99.90;;;;;;6250705;22;20505;-77
2023/08/30 00:09:59;;;;;;;4.18;2.40;;;13.20;99.90;;;;;;6251025;22;20164;-76
2023/08/30 00:12:25;;;;;;;5.50;2.60;;;13.20;99.90;;;;;;6251328;22;20161;-76
2023/08/30 00:14:51;;;;;;;4.10;2.50;;;13.10;99.90;;;;;;6251334;22;20161;-76
2023/08/30 00:17:17;;;;;;;2.95;2.58;;;13.10;99.90;;;;;;6251202;22;20199;-77
2023/08/30 00:19:43;;;;;;;4.20;2.60;;;13.00;99.90;;;;;;6251049;22;20153;-77
2023/08/30 00:22:08;;;;;;;4.30;3.47;;;13.00;99.90;;;;;;6250908;22;20163;-77
2023/08/30 00:24:34;;;;;;;5.53;3.38;;;12.90;99.90;;;;;;6250758;22;20176;-77
2023/08/30 00:27:01;;;;;;;3.22;2.92;;;12.80;99.90;;;;;;6251320;22;20258;-77
2023/08/30 00:29:28;;;;;;;3.80;3.00;;;12.80;99.90;;;;;;6277836;22;20149;-77
2023/08/30 00:31:53;;;;;;;3.05;2.85;;;12.70;99.90;;;;;;6250652;22;20161;-77
2023/08/30 00:34:19;;;;;;;4.20;3.45;;;12.70;99.90;;;;;;6251101;22;20163;-77
2023/08/30 00:36:44;;;;;;;3.75;3.25;;;12.60;99.90;;;;;;6250803;22;20191;-77
2023/08/30 00:39:10;;;;;;;5.05;3.03;;;12.60;99.90;;;;;;6250742;22;20195;-77
2023/08/30 00:41:35;;;;;;;3.17;2.90;;;12.50;99.90;;;;;;6277669;22;20152;-77
2023/08/30 00:44:01;;;;;;;3.42;3.10;;;12.50;99.90;;;;;;6276128;22;20153;-77
2023/08/30 00:46:28;;;;;;;3.05;2.60;;;12.50;99.90;;;;;;6251509;22;20204;-77
2023/08/30 00:48:53;;;;;;;3.42;2.80;;;12.50;99.90;;;;;;6250596;22;20169;-77
2023/08/30 00:51:20;;;;;;;5.18;2.90;;;12.60;99.90;;;;;;6250555;22;20183;-77
2023/08/30 00:53:46;;;;;;;3.47;2.60;;;12.60;99.90;;;;;;6277488;22;20153;-77
2023/08/30 00:56:12;;;;;;;3.58;2.50;;;12.50;99.90;;;;;;6250329;22;20195;-77
2023/08/30 00:58:38;;;;;;;3.10;2.80;;;12.50;99.90;;;;;;6250691;22;20153;-76
2023/08/30 09:55:06;;;;;;;4.70;3.17;;;19.50;99.90;;;;;;6223880;22;20242;-78
2023/08/30 09:57:32;;;;;;;4.93;3.20;;;19.60;99.90;;;;;;6250494;22;20188;-78
2023/08/30 10:00:12;;;;;;;3.22;2.95;;;19.60;99.90;;;;;;6250484;22;20157;-78
2023/08/30 10:02:43;;;;;;;5.30;3.10;;;19.90;99.90;;;;;;6251258;22;20136;-78
2023/08/30 10:05:35;;;;;;;19.42;5.05;;;20.20;99.90;;;;;;6250661;22;20171;-78
2023/08/30 10:08:39;;;;;;;57.60;9.77;;;20.40;99.90;;;;;;6250374;22;20486;-78
2023/08/30 10:11:09;;;;;;;10.70;3.65;;;20.40;99.90;;;;;;6251348;22;20153;-78
2023/08/30 10:13:38;;;;;;;5.43;3.00;;;20.40;99.90;;;;;;6250117;22;20176;-78
2023/08/30 10:16:22;;;;;;;5.03;3.25;;;20.50;99.90;;;;;;6250454;22;20204;-78
2023/08/30 10:22:17;;;;;;;3.67;2.92;;;20.70;99.90;;;;;;6276934;22;20135;-78
2023/08/30 10:24:52;;;;;;;5.05;3.08;;;20.80;99.90;;;;;;6250981;22;20164;-78
2023/08/30 10:27:23;;;;;;;4.05;3.20;;;21.00;99.90;;;;;;6250776;22;20183;-78
2023/08/30 10:30:18;;;;;;;3.70;3.40;;;21.00;99.90;;;;;;6250451;22;20180;-78
2023/08/30 10:32:53;;;;;;;3.80;3.50;;;21.10;99.90;;;;;;6249970;22;20176;-78
2023/08/30 10:35:19;;;;;;;3.83;3.50;;;21.00;99.90;;;;;;6252202;22;20152;-78
2023/08/30 10:37:55;;;;;;;5.40;3.63;;;20.90;99.90;;;;;;6252092;22;20259;-78
2023/08/30 10:40:22;;;;;;;4.53;3.67;;;20.80;99.90;;;;;;6251835;22;20141;-78
2023/08/30 10:43:02;;;;;;;4.20;3.80;;;20.90;99.90;;;;;;6251803;22;20152;-78
2023/08/30 10:45:28;;;;;;;6.40;3.78;;;20.90;99.90;;;;;;6278592;22;20137;-78
2023/08/30 10:48:00;;;;;;;4.20;3.80;;;20.80;99.90;;;;;;6251968;22;20287;-78
2023/08/30 10:50:32;;;;;;;4.68;3.97;;;20.70;99.90;;;;;;6251551;22;20489;-78
2023/08/30 10:52:58;;;;;;;6.30;4.25;;;20.80;99.90;;;;;;6251633;22;20184;-78
2023/08/30 10:55:24;;;;;;;6.38;4.10;;;21.00;99.90;;;;;;6251692;22;20644;-78
2023/08/30 10:58:02;;;;;;;6.78;4.35;;;21.00;99.90;;;;;;6278587;22;20559;-78
2023/08/30 11:00:30;;;;;;;4.85;4.13;;;20.90;99.90;;;;;;6252897;22;20145;-80
2023/08/30 11:02:56;;;;;;;6.10;4.63;;;20.80;99.90;;;;;;6229088;22;20176;-79
2023/08/30 11:05:25;;;;;;;5.85;4.25;;;20.90;99.90;;;;;;6254518;22;20560;-79
2023/08/30 11:07:51;;;;;;;5.90;4.50;;;21.10;99.90;;;;;;6255286;22;20153;-79
2023/08/30 11:10:18;;;;;;;5.00;4.40;;;21.20;99.90;;;;;;6254686;22;20156;-79
2023/08/30 11:12:45;;;;;;;5.97;4.68;;;21.20;99.90;;;;;;6282074;22;20145;-79
2023/08/30 11:15:14;;;;;;;5.05;4.65;;;21.10;99.90;;;;;;6254147;22;20149;-78
2023/08/30 11:17:40;;;;;;;6.43;4.57;;;20.90;99.90;;;;;;6278219;22;20695;-76
2023/08/30 11:20:09;;;;;;;9.82;5.05;;;20.80;99.90;;;;;;6251571;22;20141;-77
2023/08/30 11:22:46;;;;;;;11.07;5.97;;;20.90;99.90;;;;;;6252271;22;20609;-76
2023/08/30 11:25:14;;;;;;;6.28;5.40;;;21.10;99.90;;;;;;6251306;22;20581;-76
2023/08/30 11:27:40;;;;;;;6.00;5.40;;;21.20;99.90;;;;;;6251941;22;20183;-76
2023/08/30 11:30:10;;;;;;;5.65;4.72;;;21.20;98.80;;;;;;6278640;22;20149;-76
2023/08/30 11:32:36;;;;;;;6.53;5.07;;;21.40;99.40;;;;;;6278425;22;20215;-76
2023/08/30 11:35:03;;;;;;;9.35;5.25;;;21.40;99.20;;;;;;6251597;22;20243;-76
2023/08/30 11:37:29;;;;;;;8.18;5.22;;;21.30;99.50;;;;;;6250962;22;20185;-76
2023/08/30 11:39:57;;;;;;;6.05;5.40;;;21.40;99.00;;;;;;6252535;22;20157;-76
2023/08/30 11:42:24;;;;;;;9.95;5.68;;;21.30;99.10;;;;;;6251303;22;20157;-76
2023/08/30 11:44:51;;;;;;;5.72;4.95;;;21.50;98.80;;;;;;6251749;22;20153;-77
2023/08/30 11:47:24;;;;;;;9.43;4.88;;;21.50;99.20;;;;;;6250974;22;20256;-77
2023/08/30 11:49:51;;;;;;;7.70;5.03;;;21.60;98.80;;;;;;6251660;22;20161;-77
2023/08/30 11:52:18;;;;;;;8.77;5.50;;;21.50;99.40;;;;;;6251642;22;20149;-77
2023/08/30 11:54:44;;;;;;;6.60;5.90;;;21.60;99.10;;;;;;6251265;22;20179;-77
2023/08/30 11:57:10;;;;;;;5.70;5.20;;;21.50;98.50;;;;;;6251376;22;20703;-76
2023/08/30 11:59:36;;;;;;;5.40;4.90;;;21.50;97.90;;;;;;6276978;22;20161;-76
2023/08/30 12:02:03;;;;;;;8.27;5.00;;;21.30;98.50;;;;;;6251115;22;20590;-76
2023/08/30 12:04:29;;;;;;;5.50;5.00;;;21.30;99.20;;;;;;6252450;22;20164;-76
2023/08/30 12:06:54;;;;;;;5.03;4.53;;;21.10;98.50;;;;;;6250828;22;20180;-78
2023/08/30 12:09:22;;;;;;;7.47;4.95;;;21.20;98.00;;;;;;6276930;22;20194;-77
2023/08/30 12:11:51;;;;;;;8.30;5.05;;;21.20;99.00;;;;;;6278508;22;20137;-76
2023/08/30 12:14:16;;;;;;;5.22;4.47;;;21.30;98.50;;;;;;6251402;22;20189;-76
2023/08/30 12:16:43;;;;;;;7.03;4.82;;;21.40;99.10;;;;;;6250698;22;20191;-77
2023/08/30 12:19:12;;;;;;;4.45;4.03;;;21.60;98.70;;;;;;6252178;22;20160;-76
2023/08/30 12:21:47;;;;;;;4.63;4.22;;;21.70;97.90;;;;;;6250931;22;20153;-76
2023/08/30 12:24:12;;;;;;;4.65;4.25;;;21.80;96.80;;;;;;6250852;22;20206;-76
2023/08/30 12:26:38;;;;;;;5.03;4.53;;;21.80;97.00;;;;;;6251163;22;20177;-76
2023/08/30 12:29:05;;;;;;;4.32;3.92;;;21.70;97.90;;;;;;6252192;22;20156;-77
2023/08/30 12:31:32;;;;;;;4.82;4.40;;;21.50;97.80;;;;;;6251872;22;20485;-77
2023/08/30 12:33:57;;;;;;;5.55;4.20;;;21.40;98.20;;;;;;6250497;22;20157;-77
2023/08/30 12:36:23;;;;;;;6.40;4.38;;;21.40;97.50;;;;;;6250269;22;20243;-77
2023/08/30 12:38:49;;;;;;;6.93;4.30;;;21.50;98.30;;;;;;6250677;22;20647;-77
2023/08/30 12:41:16;;;;;;;7.07;4.05;;;21.50;98.90;;;;;;6278061;22;20256;-76
2023/08/30 12:43:41;;;;;;;3.60;3.30;;;21.50;98.50;;;;;;6250468;22;20578;-77
2023/08/30 12:46:07;;;;;;;4.20;3.80;;;21.60;97.40;;;;;;6250737;22;20180;-77
2023/08/30 12:48:32;;;;;;;4.78;3.83;;;21.80;96.80;;;;;;6250947;22;20220;-77
2023/08/30 12:50:58;;;;;;;3.70;3.40;;;22.00;97.00;;;;;;6250735;22;20180;-77
2023/08/30 12:53:23;;;;;;;3.70;3.40;;;22.00;95.60;;;;;;6277591;22;20133;-77
2023/08/30 12:55:49;;;;;;;5.35;3.53;;;22.00;95.60;;;;;;6250241;22;20192;-77
2023/08/30 12:58:15;;;;;;;4.00;3.60;;;22.20;97.30;;;;;;6251404;22;20184;-76
2023/08/30 13:00:40;;;;;;;6.10;3.63;;;22.30;96.30;;;;;;6276081;22;20160;-76
2023/08/30 13:03:06;;;;;;;3.92;3.63;;;22.40;95.40;;;;;;6251429;22;20146;-76
2023/08/30 13:06:17;;;;;;;3.60;3.20;;;22.70;96.20;;;;;;6250271;22;20160;-77
2023/08/30 13:08:43;;;;;;;7.88;3.67;;;22.70;96.40;;;;;;6250617;22;20149;-76
2023/08/30 13:11:08;;;;;;;4.88;4.38;;;22.80;95.70;;;;;;6251273;22;20157;-76
2023/08/30 13:13:34;;;;;;;5.60;3.78;;;22.90;94.90;;;;;;6250910;22;20163;-77
2023/08/30 13:15:59;;;;;;;3.63;3.33;;;23.20;95.60;;;;;;6250139;22;20176;-77
2023/08/30 13:18:25;;;;;;;4.00;3.65;;;23.30;94.70;;;;;;6250608;22;20153;-76
2023/08/30 13:20:54;;;;;;;4.95;3.85;;;23.30;93.70;;;;;;6250328;22;20160;-76
2023/08/30 13:23:20;;;;;;;4.50;4.10;;;23.10;94.30;;;;;;6250655;22;20153;-77
2023/08/30 13:25:47;;;;;;;6.00;4.30;;;23.10;95.00;;;;;;6275712;22;20176;-77
2023/08/30 13:28:12;;;;;;;8.05;3.72;;;22.90;94.60;;;;;;6250860;22;20202;-77
2023/08/30 13:30:44;;;;;;;4.80;3.67;;;22.50;95.90;;;;;;6250205;22;20500;-77
2023/08/30 13:33:10;;;;;;;4.30;4.00;;;22.10;96.50;;;;;;6251229;22;20198;-77
2023/08/30 13:35:38;;;;;;;5.18;4.15;;;22.00;97.30;;;;;;6250122;22;20241;-77
2023/08/30 13:38:04;;;;;;;4.95;3.97;;;21.60;97.50;;;;;;6250804;22;20168;-77
2023/08/30 13:40:46;;;;;;;4.47;4.07;;;21.40;97.90;;;;;;6250054;22;20153;-77
2023/08/30 13:43:12;;;;;;;7.20;4.18;;;21.10;97.80;;;;;;6250331;22;20595;-77
2023/08/30 13:45:37;;;;;;;6.60;3.65;;;20.70;98.00;;;;;;6275829;22;20153;-77
2023/08/30 13:48:04;;;;;;;4.97;3.90;;;20.50;99.00;;;;;;6250856;22;20231;-77
2023/08/30 13:50:31;;;;;;;5.40;4.00;;;20.20;99.20;;;;;;6250353;22;20157;-77
2023/08/30 13:52:57;;;;;;;6.07;4.60;;;20.00;99.90;;;;;;6249937;22;20149;-77
2023/08/30 13:55:23;;;;;;;5.82;4.30;;;20.20;98.80;;;;;;6249804;22;20177;-76
2023/08/30 13:57:49;;;;;;;4.15;3.75;;;20.40;98.50;;;;;;6250088;22;20185;-76
2023/08/30 14:00:15;;;;;;;7.90;3.80;;;20.50;98.70;;;;;;6249959;22;20160;-76
2023/08/30 14:02:40;;;;;;;4.20;3.83;;;20.50;98.80;;;;;;6249905;22;20168;-76
2023/08/30 14:05:07;;;;;;;4.57;3.65;;;20.30;99.50;;;;;;6250656;22;20157;-78
2023/08/30 14:07:33;;;;;;;4.35;3.88;;;20.40;99.50;;;;;;6255735;22;20248;-78
2023/08/30 14:09:58;;;;;;;11.52;3.70;;;20.40;99.80;;;;;;6254422;22;20204;-78
2023/08/30 14:12:24;;;;;;;7.95;3.63;;;20.40;99.40;;;;;;6253814;22;20215;-78
2023/08/30 14:14:49;;;;;;;5.38;3.35;;;20.40;99.80;;;;;;6254784;22;20227;-78
2023/08/30 14:17:15;;;;;;;6.25;3.50;;;20.50;99.30;;;;;;6255450;22;20578;-78
2023/08/30 14:19:41;;;;;;;4.25;3.10;;;20.50;97.50;;;;;;6255521;22;20224;-78
2023/08/30 14:22:07;;;;;;;4.70;3.67;;;20.50;98.00;;;;;;6254441;22;20149;-78
2023/08/30 14:24:32;;;;;;;5.57;3.90;;;20.60;98.50;;;;;;6253465;22;20153;-78
2023/08/30 14:27:00;;;;;;;10.43;4.20;;;20.50;99.70;;;;;;6255431;22;20649;-78
2023/08/30 14:29:26;;;;;;;6.85;4.20;;;20.50;99.90;;;;;;6255262;22;20149;-78
2023/08/30 14:31:51;;;;;;;11.38;4.05;;;20.50;99.90;;;;;;6255332;22;20168;-79
2023/08/30 14:34:20;;;;;;;7.65;3.90;;;20.60;99.60;;;;;;6257928;22;20601;-78
2023/08/30 14:36:48;;;;;;;13.60;3.97;;;20.60;99.30;;;;;;6254426;22;20656;-78
2023/08/30 14:39:14;;;;;;;4.43;3.25;;;20.60;99.90;;;;;;6253446;22;20141;-78
2023/08/30 14:41:39;;;;;;;4.35;3.95;;;20.50;99.90;;;;;;6253555;22;20493;-78
2023/08/30 14:44:05;;;;;;;3.80;3.50;;;20.00;99.90;;;;;;6254572;22;20153;-78
2023/08/30 14:46:31;;;;;;;5.65;3.72;;;20.00;99.90;;;;;;6253017;22;20185;-78
2023/08/30 14:48:57;;;;;;;6.35;3.47;;;19.80;99.90;;;;;;6279425;22;20231;-78
2023/08/30 14:51:27;;;;;;;6.00;3.88;;;19.80;99.90;;;;;;6275979;22;20157;-78
2023/08/30 14:54:04;;;;;;;5.80;3.90;;;19.80;99.90;;;;;;6251034;22;20145;-78
2023/08/30 14:56:43;;;;;;;5.40;4.80;;;19.80;99.90;;;;;;6251627;22;20192;-78
2023/08/30 14:59:13;;;;;;;7.28;4.47;;;19.70;99.90;;;;;;6279021;22;20133;-78
2023/08/30 15:01:39;;;;;;;5.05;4.53;;;19.80;99.90;;;;;;6252796;22;20141;-78
2023/08/30 15:04:05;;;;;;;3.78;3.35;;;19.70;99.90;;;;;;6277712;22;20157;-78
2023/08/30 15:06:30;;;;;;;4.32;3.92;;;19.80;99.90;;;;;;6252374;22;20269;-78
2023/08/30 15:08:56;;;;;;;3.95;3.65;;;20.10;99.90;;;;;;6251763;22;20172;-81
2023/08/30 15:11:21;;;;;;;3.90;3.50;;;20.20;99.90;;;;;;6277687;22;20164;-78
2023/08/30 15:13:47;;;;;;;3.63;3.40;;;20.20;99.90;;;;;;6278169;22;20157;-78
2023/08/30 15:16:13;;;;;;;4.70;3.60;;;20.00;99.90;;;;;;6253025;22;20240;-78
2023/08/30 15:18:38;;;;;;;4.55;3.83;;;19.90;99.90;;;;;;6251054;22;20184;-78
2023/08/30 15:21:04;;;;;;;3.83;3.40;;;19.70;99.90;;;;;;6252646;22;20153;-78
2023/08/30 15:23:31;;;;;;;5.82;3.63;;;19.50;99.90;;;;;;6280406;22;20145;-78
2023/08/30 15:25:56;;;;;;;3.60;3.35;;;19.50;99.90;;;;;;6251849;22;20177;-78
2023/08/30 15:28:23;;;;;;;6.25;3.60;;;19.40;99.90;;;;;;6251946;22;20160;-78
2023/08/30 15:30:57;;;;;;;3.65;3.40;;;19.50;99.90;;;;;;6252629;22;20142;-76
2023/08/30 15:33:52;;;;;;;3.60;3.40;;;19.60;99.90;;;;;;6277792;22;20140;-76
2023/08/30 15:36:31;;;;;;;3.67;3.28;;;19.90;99.90;;;;;;6250688;22;20181;-77
2023/08/30 15:38:57;;;;;;;6.20;3.60;;;20.00;99.90;;;;;;6276078;22;20152;-78
2023/08/30 15:41:23;;;;;;;4.40;4.00;;;20.00;99.90;;;;;;6250650;22;20157;-76
2023/08/30 15:43:48;;;;;;;3.78;3.45;;;19.90;99.90;;;;;;6251894;22;20161;-76
2023/08/30 15:46:14;;;;;;;3.60;3.30;;;19.80;99.90;;;;;;6251091;22;20169;-76
2023/08/30 15:48:40;;;;;;;4.07;3.67;;;19.70;99.90;;;;;;6278237;22;20147;-76
2023/08/30 15:51:06;;;;;;;3.80;3.50;;;19.70;99.90;;;;;;6251551;22;20153;-76
2023/08/30 15:54:13;;;;;;;3.67;3.38;;;19.80;99.90;;;;;;6277092;22;20157;-76
2023/08/30 15:56:38;;;;;;;3.80;3.47;;;19.90;99.90;;;;;;6252302;22;20266;-76
2023/08/30 15:59:22;;;;;;;4.53;3.40;;;19.80;99.90;;;;;;6252436;22;20586;-80
2023/08/30 16:01:50;;;;;;;3.97;3.55;;;19.70;99.90;;;;;;6253952;22;20172;-78
2023/08/30 16:04:15;;;;;;;4.00;3.20;;;19.70;99.90;;;;;;6280635;22;20147;-78
2023/08/30 16:06:44;;;;;;;7.43;3.40;;;19.80;99.90;;;;;;6255868;22;20180;-78
2023/08/30 16:09:11;;;;;;;7.82;3.17;;;19.80;99.90;;;;;;6254926;22;20172;-78
2023/08/30 16:11:36;;;;;;;3.05;2.83;;;19.70;99.90;;;;;;6254136;22;20157;-78
2023/08/30 16:14:02;;;;;;;4.50;2.90;;;19.70;99.90;;;;;;6255167;22;20161;-79
2023/08/30 16:16:28;;;;;;;2.95;2.75;;;19.80;99.90;;;;;;6252169;22;20189;-78
2023/08/30 16:18:53;;;;;;;3.28;2.92;;;19.80;99.90;;;;;;6276789;22;20176;-78
2023/08/30 16:21:19;;;;;;;3.78;3.00;;;19.80;99.90;;;;;;6256462;22;20156;-78
2023/08/30 16:23:44;;;;;;;3.75;3.15;;;19.80;99.90;;;;;;6257384;22;20157;-78
2023/08/30 16:26:10;;;;;;;4.18;3.00;;;19.80;99.90;;;;;;6255568;22;20177;-78
2023/08/30 16:28:35;;;;;;;3.00;2.80;;;19.70;99.90;;;;;;6257064;22;20168;-78
2023/08/30 16:31:05;;;;;;;5.35;2.85;;;19.60;99.90;;;;;;6256167;22;20157;-78
2023/08/30 16:33:31;;;;;;;3.03;2.75;;;19.50;99.90;;;;;;6251752;22;20150;-79
2023/08/30 16:35:59;;;;;;;3.00;2.80;;;19.60;99.90;;;;;;6251254;22;20184;-78
2023/08/30 16:38:25;;;;;;;3.35;2.95;;;19.50;99.90;;;;;;6249721;22;20165;-78
2023/08/30 16:40:51;;;;;;;3.05;2.75;;;19.40;99.90;;;;;;6249804;22;20159;-78
2023/08/30 16:43:17;;;;;;;3.35;2.90;;;19.30;99.90;;;;;;6249903;22;20145;-78
2023/08/30 16:45:42;;;;;;;3.03;2.83;;;19.20;99.90;;;;;;6250150;22;20168;-78
2023/08/30 16:48:10;;;;;;;2.88;2.67;;;19.20;99.90;;;;;;6250841;22;20160;-86
2023/08/30 16:50:36;;;;;;;3.13;2.78;;;19.10;99.90;;;;;;6253154;22;20176;-78
2023/08/30 16:53:04;;;;;;;3.45;2.80;;;19.20;99.90;;;;;;6252873;22;20160;-78
2023/08/30 16:55:29;;;;;;;6.28;2.95;;;19.10;99.90;;;;;;6252423;22;20176;-78
2023/08/30 16:57:56;;;;;;;2.88;2.67;;;19.20;99.90;;;;;;6253173;22;20185;-78
2023/08/30 17:00:22;;;;;;;2.58;2.42;;;19.10;99.90;;;;;;6253478;22;20156;-78
2023/08/30 17:02:48;;;;;;;3.28;2.97;;;19.00;99.90;;;;;;6252688;22;20157;-78
2023/08/30 17:05:13;;;;;;;3.95;3.50;;;18.90;99.90;;;;;;6277882;22;20632;-78
2023/08/30 17:07:39;;;;;;;4.22;3.92;;;18.80;99.90;;;;;;6254187;22;20182;-77
2023/08/30 17:10:05;;;;;;;4.90;3.60;;;18.70;99.90;;;;;;6252870;22;20593;-78
2023/08/30 17:12:30;;;;;;;4.10;3.38;;;18.60;99.90;;;;;;6252702;22;20157;-79
2023/08/30 17:15:09;;;;;;;2.90;2.70;;;18.50;99.90;;;;;;6253063;22;20250;-78
2023/08/30 17:17:35;;;;;;;3.15;2.90;;;18.40;99.90;;;;;;6250153;22;20624;-78
2023/08/30 17:20:01;;;;;;;4.10;2.97;;;18.40;99.90;;;;;;6249388;22;20161;-78
2023/08/30 17:22:26;;;;;;;4.82;3.20;;;18.40;99.90;;;;;;6249482;22;20161;-78
2023/08/30 17:24:52;;;;;;;3.30;3.00;;;18.20;99.90;;;;;;6250060;22;20184;-78
2023/08/30 17:27:17;;;;;;;4.03;2.70;;;18.10;99.90;;;;;;6249462;22;20214;-78
2023/08/30 17:29:43;;;;;;;3.20;2.90;;;18.10;99.90;;;;;;6249055;22;20598;-78
2023/08/30 17:32:09;;;;;;;3.58;3.33;;;18.00;99.90;;;;;;6250256;22;20217;-78
2023/08/30 17:34:35;;;;;;;3.40;3.20;;;17.90;99.90;;;;;;6251857;22;20156;-78
2023/08/30 17:37:03;;;;;;;4.50;2.92;;;17.80;99.90;;;;;;6250642;22;20191;-78
2023/08/30 17:39:30;;;;;;;5.32;3.58;;;17.70;99.90;;;;;;6252079;22;20141;-78
2023/08/30 17:41:56;;;;;;;5.28;3.33;;;17.60;99.90;;;;;;6251106;22;20235;-78
2023/08/30 17:44:22;;;;;;;4.22;3.47;;;17.60;99.90;;;;;;6251526;22;20203;-78
2023/08/30 17:46:48;;;;;;;5.43;3.10;;;17.50;99.90;;;;;;6250824;22;20185;-78
2023/08/30 17:49:14;;;;;;;7.22;3.40;;;17.40;99.90;;;;;;6251268;22;20164;-78
2023/08/30 17:51:40;;;;;;;4.93;3.28;;;17.40;99.90;;;;;;6253235;22;20152;-78
2023/08/30 17:54:05;;;;;;;4.90;3.88;;;17.20;99.90;;;;;;6252031;22;20167;-78
2023/08/30 17:56:31;;;;;;;3.17;2.88;;;17.20;99.90;;;;;;6253096;22;20649;-78
2023/08/30 17:58:57;;;;;;;3.33;3.10;;;17.10;99.90;;;;;;6251314;22;20153;-78
2023/08/30 18:01:27;;;;;;;4.03;3.20;;;16.90;99.90;;;;;;6249916;22;20183;-78
2023/08/30 18:03:53;;;;;;;3.60;3.28;;;16.80;99.90;;;;;;6253670;22;20149;-78
2023/08/30 18:06:18;;;;;;;4.78;3.00;;;16.70;99.90;;;;;;6253657;22;20513;-78
2023/08/30 18:08:45;;;;;;;4.57;3.30;;;16.70;99.90;;;;;;6252328;22;20153;-78
2023/08/30 18:11:14;;;;;;;4.00;3.40;;;16.70;99.90;;;;;;6250696;22;20163;-78
2023/08/30 18:13:41;;;;;;;3.20;3.00;;;16.60;99.90;;;;;;6252390;22;20149;-78
2023/08/30 18:16:06;;;;;;;4.82;3.33;;;16.60;99.90;;;;;;6278899;22;20187;-78
2023/08/30 18:18:32;;;;;;;6.05;3.90;;;16.50;99.90;;;;;;6252225;22;20180;-78
2023/08/30 18:20:59;;;;;;;6.22;3.90;;;16.50;99.90;;;;;;6251959;22;20153;-78
2023/08/30 18:23:25;;;;;;;4.50;4.10;;;16.50;99.90;;;;;;6252573;22;20160;-78
2023/08/30 18:25:50;;;;;;;7.35;5.10;;;16.50;99.90;;;;;;6252201;22;20180;-78
2023/08/30 18:28:16;;;;;;;6.32;5.65;;;16.50;99.90;;;;;;6251919;22;20160;-78
2023/08/30 18:30:41;;;;;;;5.80;5.22;;;16.40;99.90;;;;;;6253102;22;20168;-78
2023/08/30 18:33:07;;;;;;;6.60;4.82;;;16.40;99.90;;;;;;6251858;22;20152;-78
2023/08/30 18:35:33;;;;;;;4.95;4.45;;;16.30;99.90;;;;;;6253657;22;20236;-78
2023/08/30 18:38:02;;;;;;;4.38;3.97;;;16.30;99.90;;;;;;6252899;22;20212;-78
2023/08/30 18:40:31;;;;;;;4.22;3.83;;;16.20;99.90;;;;;;6252019;22;20153;-78
2023/08/30 18:42:57;;;;;;;3.83;3.30;;;16.10;99.90;;;;;;6251359;22;20160;-78
2023/08/30 18:45:23;;;;;;;5.05;4.10;;;16.00;99.90;;;;;;6278533;22;20206;-78
2023/08/30 18:47:51;;;;;;;4.13;3.72;;;16.00;99.90;;;;;;6252413;22;20625;-78
2023/08/30 18:50:18;;;;;;;3.92;3.63;;;15.90;99.90;;;;;;6252214;22;20179;-78
2023/08/30 18:52:44;;;;;;;3.90;3.60;;;15.80;99.90;;;;;;6256320;22;20207;-78
2023/08/30 18:55:09;;;;;;;5.88;3.50;;;15.80;99.90;;;;;;6255433;22;20263;-78
2023/08/30 18:57:36;;;;;;;4.95;3.40;;;15.70;99.90;;;;;;6258440;22;20193;-78
2023/08/30 19:00:13;;;;;;;4.05;3.58;;;15.60;99.90;;;;;;6259450;22;20167;-78
2023/08/30 19:02:38;;;;;;;4.43;3.30;;;15.60;99.90;;;;;;6258159;22;20156;-79
2023/08/30 19:05:06;;;;;;;3.70;3.40;;;15.60;99.90;;;;;;6256915;22;20145;-78
2023/08/30 19:07:32;;;;;;;3.38;3.08;;;15.70;99.90;;;;;;6254858;22;20241;-80
2023/08/30 19:10:03;;;;;;;3.75;3.40;;;15.80;99.90;;;;;;6254816;22;20164;-80
2023/08/30 19:12:28;;;;;;;6.00;3.78;;;15.80;99.90;;;;;;6254840;22;20152;-80
2023/08/30 19:14:54;;;;;;;11.68;4.70;;;15.90;99.90;;;;;;6281779;22;20153;-80
2023/08/30 19:17:32;;;;;;;6.35;3.42;;;15.80;99.90;;;;;;6254815;22;20184;-80
2023/08/30 19:20:16;;;;;;;6.07;2.92;;;15.70;99.90;;;;;;6253933;22;20518;-76
2023/08/30 19:22:42;;;;;;;3.63;3.20;;;15.60;99.90;;;;;;6278456;22;20153;-76
2023/08/30 19:25:15;;;;;;;3.85;3.40;;;15.60;99.90;;;;;;6251423;22;20617;-76
2023/08/30 19:27:42;;;;;;;3.90;3.40;;;15.50;99.90;;;;;;6252877;22;20180;-76
2023/08/30 19:30:08;;;;;;;4.30;3.90;;;15.50;99.90;;;;;;6251455;22;20164;-76
2023/08/30 19:32:39;;;;;;;7.30;4.35;;;15.50;99.90;;;;;;6251735;22;20161;-76
2023/08/30 19:35:14;;;;;;;3.92;3.63;;;15.50;99.90;;;;;;6252402;22;20230;-76
2023/08/30 19:37:42;;;;;;;4.65;4.03;;;15.50;99.90;;;;;;6251360;22;20184;-76
2023/08/30 19:40:09;;;;;;;5.18;4.00;;;15.50;99.90;;;;;;6251419;22;20172;-76
2023/08/30 19:42:34;;;;;;;5.20;4.13;;;15.40;99.90;;;;;;6251627;22;20156;-76
2023/08/30 19:45:00;;;;;;;5.22;4.72;;;15.30;99.90;;;;;;6252639;22;20516;-76
2023/08/30 19:47:30;;;;;;;4.93;4.28;;;15.40;99.90;;;;;;6278540;22;20176;-76
2023/08/30 19:49:56;;;;;;;7.38;4.72;;;15.30;99.90;;;;;;6251287;22;20164;-76
2023/08/30 19:52:23;;;;;;;4.32;3.92;;;15.30;99.90;;;;;;6226191;22;20567;-76
2023/08/30 19:54:49;;;;;;;4.68;4.25;;;15.30;99.90;;;;;;6251107;22;20236;-76
2023/08/30 20:00:38;;;;;;;4.70;4.30;;;15.20;99.90;;;;;;6278243;22;20473;-76
2023/08/30 20:03:38;;;;;;;4.70;4.25;;;15.30;99.90;;;;;;6251139;22;20157;-76
2023/08/30 20:06:04;;;;;;;5.15;4.13;;;15.20;99.90;;;;;;6251447;22;20176;-76
2023/08/30 20:09:21;;;;;;;5.30;4.82;;;15.30;99.90;;;;;;6276522;22;20161;-76
2023/08/30 20:11:46;;;;;;;5.13;4.70;;;15.30;99.90;;;;;;6251032;22;20153;-76
2023/08/30 20:14:28;;;;;;;4.50;4.07;;;15.30;99.90;;;;;;6250992;22;20160;-76
2023/08/30 20:16:54;;;;;;;4.40;4.00;;;15.40;99.90;;;;;;6250721;22;20185;-76
2023/08/30 20:19:20;;;;;;;4.03;3.25;;;15.40;99.90;;;;;;6251377;22;20191;-77
2023/08/30 20:21:46;;;;;;;3.13;2.72;;;15.40;99.90;;;;;;6251310;22;20160;-76
2023/08/30 20:24:16;;;;;;;2.92;2.72;;;15.50;99.90;;;;;;6250800;22;20153;-76
2023/08/30 20:26:46;;;;;;;3.00;2.78;;;15.50;99.90;;;;;;6251843;22;20211;-76
2023/08/30 20:29:12;;;;;;;3.13;2.72;;;15.50;99.90;;;;;;6251513;22;20153;-77
2023/08/30 20:31:39;;;;;;;4.28;2.30;;;15.40;99.90;;;;;;6257988;22;20160;-78
2023/08/30 20:34:05;;;;;;;2.80;2.60;;;15.50;99.90;;;;;;6282324;22;20153;-78
2023/08/30 20:36:32;;;;;;;6.13;4.22;;;15.50;99.90;;;;;;6258299;22;20210;-78
2023/08/30 20:38:58;;;;;;;4.88;4.43;;;15.40;99.90;;;;;;6258646;22;20594;-78
2023/08/30 20:41:27;;;;;;;5.25;4.75;;;15.40;99.90;;;;;;6232889;22;20161;-78
2023/08/30 20:43:57;;;;;;;4.78;4.28;;;15.40;99.90;;;;;;6257932;22;20153;-78
2023/08/30 20:46:25;;;;;;;3.60;3.28;;;15.30;99.90;;;;;;6256559;22;20183;-78
2023/08/30 20:48:55;;;;;;;3.22;2.58;;;15.20;99.90;;;;;;6254092;22;20153;-78
2023/08/30 20:51:39;;;;;;;2.42;2.22;;;15.30;99.90;;;;;;6254489;22;20181;-76
2023/08/30 20:54:38;;;;;;;1.55;1.45;;;15.30;99.90;;;;;;6250581;22;20235;-76
2023/08/30 20:57:30;;;;;;;1.38;1.33;;;15.30;99.90;;;;;;6250126;22;20255;-76
2023/08/30 20:59:55;;;;;;;1.45;1.20;;;15.20;99.90;;;;;;6250519;22;20198;-76
2023/08/30 21:02:21;;;;;;;1.10;1.10;;;15.10;99.90;;;;;;6251918;22;20161;-76
2023/08/30 21:05:11;;;;;;;1.63;1.42;;;15.10;99.90;;;;;;6250507;22;20491;-76
2023/08/30 21:07:37;;;;;;;1.60;1.50;;;15.10;99.90;;;;;;6250800;22;20235;-78
2023/08/30 21:10:03;;;;;;;6.60;1.52;;;15.00;99.90;;;;;;6276929;22;20521;-78
2023/08/30 21:12:37;;;;;;;1.17;1.17;;;15.10;99.90;;;;;;6251115;22;20161;-78
2023/08/30 21:15:03;;;;;;;1.20;1.10;;;15.10;99.90;;;;;;6252631;22;20480;-78
2023/08/30 21:17:28;;;;;;;1.10;1.00;;;15.10;99.90;;;;;;6251388;22;20563;-78
2023/08/30 21:19:54;;;;;;;2.67;1.30;;;15.10;99.90;;;;;;6251002;22;20148;-78
2023/08/30 21:22:20;;;;;;;1.40;1.30;;;15.10;99.90;;;;;;6249250;22;20179;-78
2023/08/30 21:24:45;;;;;;;1.35;1.25;;;15.10;99.90;;;;;;6277799;22;20448;-78
2023/08/30 21:27:11;;;;;;;2.38;1.35;;;15.00;99.90;;;;;;6251190;22;20252;-78
2023/08/30 21:30:09;;;;;;;1.40;1.30;;;14.80;99.90;;;;;;6250944;22;20156;-78
2023/08/30 21:32:34;;;;;;;1.40;1.30;;;14.80;99.90;;;;;;6251165;22;20536;-78
2023/08/30 21:35:00;;;;;;;1.08;1.08;;;14.80;99.90;;;;;;6251253;22;20184;-83
2023/08/30 21:37:26;;;;;;;1.60;1.40;;;14.70;99.90;;;;;;6252870;22;20192;-78
2023/08/30 21:40:07;;;;;;;1.38;1.27;;;14.70;99.90;;;;;;6253772;22;20227;-78
2023/08/30 21:42:47;;;;;;;1.13;1.13;;;14.70;99.90;;;;;;6254338;22;20140;-78
2023/08/30 21:45:16;;;;;;;1.90;1.40;;;14.60;99.90;;;;;;6255976;22;20456;-78
2023/08/30 21:47:42;;;;;;;2.90;1.30;;;14.50;99.90;;;;;;6279627;22;20544;-78
2023/08/30 21:50:10;;;;;;;2.13;1.45;;;14.40;99.90;;;;;;6254394;22;20157;-78
2023/08/30 21:52:36;;;;;;;1.15;1.13;;;14.40;99.90;;;;;;6256518;22;20149;-78